Meath Environmental Platform

Observations for Trim Patrick St

Time AQI Temp °C Hum % Pres Pa CO μg/m³ H₂S μg/m³ NO μg/m³ NO₂ μg/m³ O₃ μg/m³ SO₂ μg/m³ PM1 μg/m³ PM2.5 μg/m³ PM10 μg/m³
Thursday 27 August 2026
16:56 3 21.6 73 38,460 0 1.02 2.41 12.75 46.1 3.43 11.43 16.38 18.02
16:55 3 21.6 73 38,460 0 0.89 3.01 14.58 45.78 3.42 14 19.94 21.94
16:54 3 21.6 73 38,460 0 0 2.89 8.06 49.85 3.54 12.29 18.53 20.39
16:53 3 21.6 73 38,460 0 0.36 3.1 8.41 49.72 3.65 13.14 17.79 19.57
16:52 3 21.6 74 38,460 0 3.37 3.12 13.68 56.38 3.49 14.86 20.63 22.7
16:51 3 21.6 73 38,460 0 2.31 3 14.58 43.76 3.13 14.86 22.1 24.3
16:50 3 21.6 73 38,460 0 1.36 2.95 15.29 46.38 3.09 13.14 18.51 20.36
16:49 3 21.6 73 38,460 0 1.47 2.57 15.92 51.36 3.01 14.86 20.67 22.73
16:48 3 21.6 73 38,460 0 0.04 2.38 8.36 53.59 3.46 12.29 20.69 22.76
16:47 3 21.6 73 38,460 0 0 2.02 8.85 50.3 3.47 14 19.96 21.96
16:46 3 21.6 73 38,460 0 0 1.91 8.86 50.56 3.17 14 19.26 21.18
16:45 3 21.6 73 38,460 0 0.52 1.44 8.64 52.69 3.45 14.86 18.53 20.39
16:44 3 21.6 73 38,460 0 0.04 1.65 9.11 53.18 3.27 12.29 18.52 20.38
16:43 3 21.6 73 38,460 0 0.44 1.49 8.45 56.42 2.91 14 19.96 21.96
16:42 3 21.6 73 38,460 0 0.7 1.75 9.64 53.48 3.11 14.86 19.25 21.17
16:41 3 21.6 73 38,460 0 0 2.72 8.28 49.99 3.48 14 20.7 22.77
16:40 3 21.6 73 38,460 0 1.23 3.15 11.64 45.24 2.68 14 19.97 21.97
16:39 3 21.6 73 38,460 0.01 3.47 3.34 14.2 53.49 2.98 14.86 18.52 20.38
16:38 3 21.6 73 38,460 0.11 3.42 3.24 22.43 43.81 4.03 13.14 17.83 19.61
16:37 3 21.7 73 38,460 0 0.33 3.09 13.72 41.54 3.61 14 21.43 23.57